New Douglas, Illinois
Current Conditions -  °F | °C
As of 9:55 AM on Friday 24 Oct 2014 (Local Time) from K3LF Reporting Station
Haze Haze  
Wind Chill: 55°   Ceiling: 200
Heat Index: 55°   Visibility: 1.2mi
Dew Point: 53°   Wind: 8mph
Humidity: 95%   Direction: 280°W
Pressure: 30.12"   Gusts: NA
Location:  38.97°N, 89.67°W
Report Text: K3LF 241455Z AUTO 28007KT 1 1/4SM BR OVC002 13/12 A3012 RMK AO2 T01270119
Loading
Personal Weather Stations






























Interactive Weather Map
Tropical Storm Tracking
New forecast layout! Learn more

10-Day Weather Forecast

Advertisements
Track Severe Weather on mobile